Saint Leonard, Maryland
Current Conditions -  °F | °C
As of 11:33 AM on Thursday 23 Oct 2014 (Local Time) from K2W6 Reporting Station
Scattered Clouds Scattered Clouds  
Wind Chill: 59°   Ceiling: Unl
Heat Index: 59°   Visibility: 10mi
Dew Point: 43°   Wind: 16mph
Humidity: 55%   Direction: 300°WNW
Pressure: 29.87"   Gusts: 24mph
Location:  38.47°N, 76.51°W
Report Text: K2W6 231533Z AUTO 30014G21KT 10SM SCT033 SCT041 15/06 A2987 RMK AO1
Loading
Personal Weather Stations






























Interactive Weather Map
Tropical Storm Tracking
New forecast layout! Learn more

10-Day Weather Forecast

Advertisements
Track Severe Weather on mobile